createdAt,value
2019-05-18T00:00:49.746Z,84.00
2019-05-18T00:01:49.734Z,83.93
2019-05-18T00:02:49.724Z,84.91
2019-05-18T00:03:49.714Z,84.55
2019-05-18T00:04:49.714Z,84.41
2019-05-18T00:05:49.704Z,84.75
2019-05-18T00:06:49.684Z,85.88
2019-05-18T00:07:49.680Z,85.88
2019-05-18T00:08:49.661Z,85.67
2019-05-18T00:09:49.649Z,85.22
2019-05-18T00:10:49.649Z,85.97
2019-05-18T00:11:49.638Z,85.88
2019-05-18T00:12:49.617Z,85.97
2019-05-18T00:13:49.610Z,85.88
2019-05-18T00:14:49.598Z,85.88
2019-05-18T00:15:49.588Z,85.88
2019-05-18T00:16:49.596Z,85.53
2019-05-18T00:17:49.572Z,85.77
2019-05-18T00:18:49.553Z,84.95
2019-05-18T00:19:49.542Z,85.26
2019-05-18T00:20:49.533Z,85.16
2019-05-18T00:21:49.521Z,84.71
2019-05-18T00:22:49.519Z,84.24
2019-05-18T00:23:49.514Z,84.55
2019-05-18T00:24:49.489Z,84.85
2019-05-18T00:25:49.478Z,84.85
2019-05-18T00:26:49.467Z,84.61
2019-05-18T00:27:49.459Z,84.65
2019-05-18T00:28:49.458Z,84.24
2019-05-18T00:29:49.445Z,83.83
2019-05-18T00:30:49.425Z,84.34
2019-05-18T00:31:49.413Z,84.34
2019-05-18T00:32:49.404Z,83.11
2019-05-18T00:33:49.393Z,84.03
2019-05-18T00:34:49.395Z,83.22
2019-05-18T00:35:49.387Z,83.97
2019-05-18T00:36:49.368Z,83.97
2019-05-18T00:37:49.350Z,84.34
2019-05-18T00:38:49.340Z,84.79
2019-05-18T00:39:49.328Z,84.79
2019-05-18T00:40:49.328Z,85.30
2019-05-18T00:41:49.313Z,86.12
2019-05-18T00:42:49.297Z,86.63
2019-05-18T00:43:49.286Z,86.77
2019-05-18T00:44:49.305Z,86.46
2019-05-18T00:45:49.263Z,86.05
2019-05-18T00:46:49.264Z,85.24
2019-05-18T00:47:49.253Z,85.03
2019-05-18T00:48:49.231Z,85.03
2019-05-18T00:49:49.219Z,86.05
2019-05-18T00:50:49.209Z,85.96
2019-05-18T00:51:49.197Z,86.16
2019-05-18T00:52:49.197Z,86.36
2019-05-18T00:53:49.188Z,87.18
2019-05-18T00:54:49.168Z,86.46
2019-05-18T00:55:49.156Z,86.36
2019-05-18T00:56:49.144Z,85.75
2019-05-18T00:57:49.132Z,85.96
2019-05-18T00:58:49.132Z,86.20
2019-05-18T00:59:49.119Z,87.12
2019-05-18T01:00:49.102Z,87.77
2019-05-18T01:01:49.092Z,88.18
2019-05-18T01:02:49.081Z,88.18
2019-05-18T01:03:49.068Z,88.49
2019-05-18T01:04:49.067Z,88.08
2019-05-18T01:05:49.056Z,87.77
2019-05-18T01:06:49.038Z,88.18
2019-05-18T01:07:49.025Z,88.49
2019-05-18T01:08:49.017Z,88.49
2019-05-18T01:09:49.004Z,88.08
2019-05-18T01:10:49.002Z,87.43
2019-05-18T01:11:48.989Z,87.37
2019-05-18T01:12:48.972Z,86.91
2019-05-18T01:13:48.960Z,86.65
2019-05-18T01:14:48.954Z,86.04
2019-05-18T01:15:48.941Z,85.83
2019-05-18T01:16:48.941Z,86.85
2019-05-18T01:17:56.790Z,86.24
2019-05-18T01:18:49.910Z,86.04
2019-05-18T01:19:48.897Z,85.99
2019-05-18T01:20:48.887Z,85.99
2019-05-18T01:21:48.874Z,85.69
2019-05-18T01:22:48.874Z,86.04
2019-05-18T01:23:48.862Z,85.83
2019-05-18T01:24:48.843Z,85.83
2019-05-18T01:25:48.831Z,85.93
2019-05-18T01:26:48.818Z,85.93
2019-05-18T01:27:48.808Z,85.42
2019-05-18T01:28:48.805Z,85.01
2019-05-18T01:29:48.793Z,84.91
2019-05-18T01:30:48.774Z,84.91
2019-05-18T01:31:48.765Z,85.31
2019-05-18T01:32:48.753Z,85.42
2019-05-18T01:33:48.742Z,85.93
2019-05-18T01:34:48.742Z,85.97
2019-05-18T01:35:48.736Z,85.97
2019-05-18T01:36:48.711Z,85.63
2019-05-18T01:37:48.701Z,86.04
2019-05-18T01:38:48.690Z,86.04
2019-05-18T01:39:48.682Z,85.93
2019-05-18T01:40:48.682Z,86.07
2019-05-18T01:41:48.667Z,85.87
2019-05-18T01:42:48.650Z,86.07
2019-05-18T01:43:48.636Z,86.18
2019-05-18T01:44:48.629Z,86.07
2019-05-18T01:45:48.614Z,86.07
2019-05-18T01:46:48.617Z,86.22
2019-05-18T01:47:48.602Z,86.42
2019-05-18T01:48:48.582Z,86.22
2019-05-18T01:49:48.612Z,86.83
2019-05-18T01:50:48.564Z,86.73
2019-05-18T01:51:48.555Z,87.14
2019-05-18T01:52:48.551Z,87.14
2019-05-18T01:53:48.545Z,87.04
2019-05-18T01:54:48.519Z,86.73
2019-05-18T01:55:48.507Z,87.24
2019-05-18T01:56:48.498Z,87.85
2019-05-18T01:57:48.496Z,87.45
2019-05-18T01:58:48.487Z,87.59
2019-05-18T01:59:48.474Z,87.38
2019-05-18T02:00:48.455Z,88.00
2019-05-18T02:01:48.461Z,87.79
2019-05-18T02:02:48.434Z,87.70
2019-05-18T02:03:49.305Z,87.70
2019-05-18T02:04:48.425Z,86.81
2019-05-18T02:05:48.434Z,86.91
2019-05-18T02:06:48.393Z,87.08
2019-05-18T02:07:48.382Z,86.98
2019-05-18T02:08:48.380Z,86.91
2019-05-18T02:09:48.363Z,86.36
2019-05-18T02:10:48.363Z,86.60
2019-05-18T02:11:48.359Z,86.91
2019-05-18T02:12:48.329Z,87.12
2019-05-18T02:13:48.318Z,87.22
2019-05-18T02:14:48.309Z,87.53
2019-05-18T02:15:48.300Z,87.37
2019-05-18T02:16:48.305Z,87.88
2019-05-18T02:17:48.287Z,87.53
2019-05-18T02:18:48.289Z,87.67
2019-05-18T02:19:48.256Z,87.63
2019-05-18T02:20:48.245Z,87.73
2019-05-18T02:21:48.240Z,87.98
2019-05-18T02:22:48.234Z,87.57
2019-05-18T02:23:48.222Z,87.77
2019-05-18T02:24:48.201Z,87.53
2019-05-18T02:25:48.192Z,87.05
2019-05-18T02:26:48.180Z,87.26
2019-05-18T02:27:48.171Z,87.16
2019-05-18T02:28:48.181Z,87.22
2019-05-18T02:29:48.157Z,87.57
2019-05-18T02:30:48.139Z,87.26
2019-05-18T02:31:48.130Z,86.95
2019-05-18T02:32:48.118Z,87.16
2019-05-18T02:33:48.107Z,86.65
2019-05-18T02:34:48.114Z,86.89
2019-05-18T02:35:48.096Z,87.67
2019-05-18T02:36:48.074Z,88.02
2019-05-18T02:37:48.066Z,88.33
2019-05-18T02:38:48.053Z,88.02
2019-05-18T02:39:48.040Z,88.33
2019-05-18T02:40:48.049Z,88.43
2019-05-18T02:41:48.043Z,88.43
2019-05-18T02:42:48.010Z,88.64
2019-05-18T02:43:48.011Z,88.84
2019-05-18T02:44:47.988Z,88.74
2019-05-18T02:45:47.978Z,88.64
2019-05-18T02:46:47.977Z,88.64
2019-05-18T02:47:47.963Z,88.84
2019-05-18T02:48:50.507Z,88.84
2019-05-18T02:49:47.934Z,88.74
2019-05-18T02:50:47.924Z,88.64
2019-05-18T02:51:47.913Z,88.33
2019-05-18T02:52:47.943Z,88.23
2019-05-18T02:53:47.902Z,87.61
2019-05-18T02:54:47.881Z,87.82
2019-05-18T02:55:47.873Z,87.82
2019-05-18T02:56:47.859Z,87.65
2019-05-18T02:57:47.847Z,87.71
2019-05-18T02:58:47.851Z,88.06
2019-05-18T02:59:47.838Z,88.47
2019-05-18T03:00:47.815Z,88.06
2019-05-18T03:01:47.806Z,88.27
2019-05-18T03:02:47.798Z,88.06
2019-05-18T03:03:47.783Z,88.41
2019-05-18T03:04:47.789Z,88.27
2019-05-18T03:05:47.774Z,88.06
2019-05-18T03:06:47.751Z,87.55
2019-05-18T03:07:47.738Z,87.69
2019-05-18T03:08:47.728Z,88.20
2019-05-18T03:09:47.718Z,88.00
2019-05-18T03:10:47.718Z,88.41
2019-05-18T03:11:47.708Z,88.92
2019-05-18T03:12:47.686Z,88.82
2019-05-18T03:13:47.679Z,88.72
2019-05-18T03:14:47.664Z,88.82
2019-05-18T03:15:47.657Z,88.92
2019-05-18T03:16:47.652Z,88.41
2019-05-18T03:17:47.648Z,88.20
2019-05-18T03:19:04.857Z,88.10
2019-05-18T03:19:48.607Z,87.79
2019-05-18T03:20:47.600Z,87.90
2019-05-18T03:21:47.587Z,87.69
2019-05-18T03:22:47.589Z,87.59
2019-05-18T03:23:47.579Z,88.00
2019-05-18T03:24:47.558Z,88.20
2019-05-18T03:25:47.548Z,88.41
2019-05-18T03:26:47.538Z,88.10
2019-05-18T03:27:47.521Z,88.72
2019-05-18T03:28:47.523Z,88.92
2019-05-18T03:29:47.529Z,89.34
2019-05-18T03:30:47.493Z,88.62
2019-05-18T03:31:47.486Z,89.03
2019-05-18T03:32:47.493Z,88.82
2019-05-18T03:33:47.459Z,88.82
2019-05-18T03:34:47.506Z,89.07
2019-05-18T03:35:47.451Z,88.72
2019-05-18T03:36:47.436Z,88.72
2019-05-18T03:37:47.416Z,89.07
2019-05-18T03:38:47.403Z,88.66
2019-05-18T03:39:47.393Z,89.54
2019-05-18T03:40:47.393Z,89.44
2019-05-18T03:41:47.386Z,89.44
2019-05-18T03:42:47.361Z,89.23
2019-05-18T03:43:47.351Z,88.72
2019-05-18T03:44:47.350Z,88.62
2019-05-18T03:45:47.328Z,89.44
2019-05-18T03:46:47.332Z,89.23
2019-05-18T03:47:47.314Z,89.34
2019-05-18T03:48:47.296Z,89.44
2019-05-18T03:49:47.286Z,90.06
2019-05-18T03:50:47.276Z,89.75
2019-05-18T03:51:47.264Z,89.44
2019-05-18T03:52:47.271Z,89.03
2019-05-18T03:53:47.252Z,89.23
2019-05-18T03:54:47.235Z,88.72
2019-05-18T03:55:47.221Z,88.92
2019-05-18T03:56:47.210Z,88.82
2019-05-18T03:57:47.204Z,89.34
2019-05-18T03:58:47.210Z,89.13
2019-05-18T03:59:47.186Z,88.82
2019-05-18T04:00:47.169Z,88.41
2019-05-18T04:01:47.159Z,88.20
2019-05-18T04:02:47.154Z,88.06
2019-05-18T04:03:47.137Z,87.34
2019-05-18T04:04:47.140Z,87.07
2019-05-18T04:05:47.141Z,87.34
2019-05-18T04:06:47.103Z,87.13
2019-05-18T04:07:47.093Z,86.93
2019-05-18T04:08:47.091Z,87.34
2019-05-18T04:09:47.072Z,87.82
2019-05-18T04:10:47.072Z,87.61
2019-05-18T04:11:47.062Z,87.61
2019-05-18T04:12:47.041Z,86.85
2019-05-18T04:13:47.030Z,87.16
2019-05-18T04:14:47.018Z,86.54
2019-05-18T04:15:47.010Z,86.13
2019-05-18T04:16:47.007Z,85.17
2019-05-18T04:17:47.000Z,86.05
2019-05-18T04:18:46.977Z,85.13
2019-05-18T04:19:47.608Z,84.52
2019-05-18T04:20:46.954Z,84.27
2019-05-18T04:21:46.946Z,83.04
2019-05-18T04:22:46.947Z,83.14
2019-05-18T04:23:46.933Z,81.77
2019-05-18T04:24:46.911Z,81.57
2019-05-18T04:25:46.901Z,80.85
2019-05-18T04:26:46.899Z,80.51
2019-05-18T04:27:46.880Z,80.09
2019-05-18T04:28:46.879Z,80.19
2019-05-18T04:29:46.874Z,80.36
2019-05-18T04:30:46.855Z,80.30
2019-05-18T04:31:46.838Z,79.96
2019-05-18T04:32:46.825Z,79.96
2019-05-18T04:33:46.816Z,79.20
2019-05-18T04:34:46.817Z,78.89
2019-05-18T04:35:46.806Z,77.56
2019-05-18T04:36:46.784Z,77.12
2019-05-18T04:37:46.771Z,76.91
2019-05-18T04:38:46.763Z,76.50
2019-05-18T04:39:46.751Z,76.30
2019-05-18T04:40:46.864Z,75.89
2019-05-18T04:41:46.737Z,76.16
2019-05-18T04:42:46.718Z,76.57
2019-05-18T04:43:46.707Z,76.84
2019-05-18T04:44:46.700Z,75.41
2019-05-18T04:45:46.695Z,75.37
2019-05-18T04:46:46.706Z,75.75
2019-05-18T04:47:48.720Z,75.13
2019-05-18T04:48:46.664Z,74.93
2019-05-18T04:50:03.808Z,74.59
2019-05-18T04:50:47.631Z,74.08
2019-05-18T04:51:46.625Z,74.15
2019-05-18T04:52:46.634Z,72.92
2019-05-18T04:53:46.607Z,72.31
2019-05-18T04:54:46.590Z,72.08
2019-05-18T04:55:46.579Z,72.28
2019-05-18T04:56:46.569Z,72.79
2019-05-18T04:57:46.563Z,72.45
2019-05-18T04:58:46.565Z,72.86
2019-05-18T04:59:46.545Z,71.91
2019-05-18T05:00:46.524Z,71.60
2019-05-18T05:01:46.521Z,71.06
2019-05-18T05:02:46.504Z,71.36
2019-05-18T05:03:46.494Z,70.01
2019-05-18T05:04:46.493Z,70.21
2019-05-18T05:05:46.498Z,70.01
2019-05-18T05:06:46.459Z,69.87
2019-05-18T05:07:46.450Z,69.77
2019-05-18T05:08:46.438Z,69.57
2019-05-18T05:09:46.428Z,69.13
2019-05-18T05:10:46.430Z,68.52
2019-05-18T05:11:46.417Z,69.33
2019-05-18T05:12:46.395Z,69.23
2019-05-18T05:13:46.387Z,69.43
2019-05-18T05:14:46.376Z,69.30
2019-05-18T05:15:46.362Z,68.38
2019-05-18T05:16:46.363Z,68.89
2019-05-18T05:17:46.354Z,68.96
2019-05-18T05:18:46.330Z,68.86
2019-05-18T05:19:46.321Z,67.81
2019-05-18T05:20:46.309Z,68.22
2019-05-18T05:21:46.300Z,67.98
2019-05-18T05:22:46.298Z,67.58
2019-05-18T05:23:46.287Z,67.58
2019-05-18T05:24:46.266Z,67.47
2019-05-18T05:25:46.256Z,67.47
2019-05-18T05:26:46.245Z,67.07
2019-05-18T05:27:46.234Z,68.29
2019-05-18T05:28:46.236Z,68.90
2019-05-18T05:29:46.220Z,68.79
2019-05-18T05:30:46.201Z,68.49
2019-05-18T05:31:46.193Z,68.70
2019-05-18T05:32:46.180Z,68.70
2019-05-18T05:33:46.170Z,69.87
2019-05-18T05:34:46.214Z,70.48
2019-05-18T05:35:46.158Z,71.20
2019-05-18T05:36:46.138Z,71.80
2019-05-18T05:37:46.129Z,71.26
2019-05-18T05:38:46.117Z,70.42
2019-05-18T05:39:46.107Z,70.08
2019-05-18T05:40:46.106Z,69.88
2019-05-18T05:41:46.094Z,69.27
2019-05-18T05:42:46.075Z,69.54
2019-05-18T05:43:46.477Z,69.03
2019-05-18T05:44:46.055Z,68.23
2019-05-18T05:45:46.043Z,68.43
2019-05-18T05:46:46.055Z,68.52
2019-05-18T05:47:46.022Z,68.52
2019-05-18T05:48:46.010Z,68.52
2019-05-18T05:49:46.008Z,68.60
2019-05-18T05:50:45.988Z,67.76
2019-05-18T05:51:45.981Z,68.16
2019-05-18T05:52:45.977Z,67.25
2019-05-18T05:53:45.960Z,66.81
2019-05-18T05:54:45.959Z,66.71
2019-05-18T05:55:45.934Z,65.70
2019-05-18T05:56:45.926Z,65.56
2019-05-18T05:57:45.913Z,66.71
2019-05-18T05:58:45.912Z,65.93
2019-05-18T05:59:45.891Z,66.74
2019-05-18T06:00:45.889Z,66.74
2019-05-18T06:01:45.871Z,65.80
2019-05-18T06:02:45.862Z,65.73
2019-05-18T06:03:45.847Z,65.90
2019-05-18T06:04:45.849Z,66.94
2019-05-18T06:05:45.827Z,66.74
2019-05-18T06:06:45.825Z,67.42
2019-05-18T06:07:45.805Z,67.11
2019-05-18T06:08:45.794Z,66.88
2019-05-18T06:09:45.786Z,66.64
2019-05-18T06:10:45.786Z,64.83
2019-05-18T06:11:45.762Z,64.42
2019-05-18T06:12:45.770Z,64.42
2019-05-18T06:13:45.741Z,64.62
2019-05-18T06:14:45.731Z,64.49
2019-05-18T06:15:45.722Z,63.35
2019-05-18T06:16:45.725Z,63.68
2019-05-18T06:17:45.699Z,63.15
2019-05-18T06:18:45.711Z,63.12
2019-05-18T06:19:45.679Z,62.62
2019-05-18T06:20:51.393Z,62.92
2019-05-18T06:21:46.669Z,62.18
2019-05-18T06:22:45.678Z,62.28
2019-05-18T06:23:45.635Z,61.55
2019-05-18T06:24:45.636Z,61.65
2019-05-18T06:25:45.613Z,60.44
2019-05-18T06:26:45.604Z,60.64
2019-05-18T06:27:45.613Z,60.21
2019-05-18T06:28:45.582Z,59.90
2019-05-18T06:29:45.572Z,60.10
2019-05-18T06:30:45.576Z,60.10
2019-05-18T06:31:45.551Z,60.08
2019-05-18T06:32:45.540Z,60.74
2019-05-18T06:33:45.539Z,61.72
2019-05-18T06:34:45.519Z,61.32
2019-05-18T06:35:45.518Z,59.37
2019-05-18T06:36:45.499Z,60.31
2019-05-18T06:37:45.486Z,60.38
2019-05-18T06:38:45.476Z,59.47
2019-05-18T06:39:45.476Z,60.64
2019-05-18T06:40:45.454Z,62.25
2019-05-18T06:41:45.451Z,62.05
2019-05-18T06:42:45.433Z,62.25
2019-05-18T06:43:45.422Z,62.32
2019-05-18T06:44:45.412Z,61.24
2019-05-18T06:45:45.413Z,61.77
2019-05-18T06:46:45.389Z,63.52
2019-05-18T06:47:48.261Z,62.79
2019-05-18T06:48:45.369Z,62.35
2019-05-18T06:49:45.360Z,61.95
2019-05-18T06:50:45.349Z,62.32
2019-05-18T06:51:45.346Z,60.88
2019-05-18T06:52:45.325Z,61.21
2019-05-18T06:53:45.324Z,60.78
2019-05-18T06:54:45.317Z,60.58
2019-05-18T06:55:45.294Z,60.45
2019-05-18T06:56:45.281Z,60.35
2019-05-18T06:57:45.281Z,61.29
2019-05-18T06:58:45.260Z,60.88
2019-05-18T06:59:45.255Z,60.58
2019-05-18T07:00:45.241Z,60.91
2019-05-18T07:01:45.230Z,61.95
2019-05-18T07:02:45.219Z,62.55
2019-05-18T07:03:45.249Z,64.78
2019-05-18T07:04:45.197Z,62.93
2019-05-18T07:05:45.195Z,63.46
2019-05-18T07:06:45.182Z,63.09
2019-05-18T07:07:45.164Z,64.23
2019-05-18T07:08:45.156Z,64.87
2019-05-18T07:09:45.153Z,64.36
2019-05-18T07:10:45.134Z,64.87
2019-05-18T07:11:45.128Z,65.37
2019-05-18T07:12:45.111Z,64.67
2019-05-18T07:13:45.099Z,64.70
2019-05-18T07:14:45.091Z,62.85
2019-05-18T07:15:45.090Z,62.83
2019-05-18T07:16:45.098Z,61.72
2019-05-18T07:17:45.065Z,60.58
2019-05-18T07:18:45.051Z,60.78
2019-05-18T07:19:45.039Z,59.75
2019-05-18T07:20:45.025Z,60.02
2019-05-18T07:21:45.025Z,58.91
2019-05-18T07:22:45.006Z,58.91
2019-05-18T07:23:45.003Z,59.52
2019-05-18T07:24:44.983Z,59.79
2019-05-18T07:25:44.973Z,59.59
2019-05-18T07:26:44.961Z,59.08
2019-05-18T07:27:44.964Z,59.16
2019-05-18T07:28:44.940Z,59.66
2019-05-18T07:29:44.948Z,58.75
2019-05-18T07:30:44.921Z,58.53
2019-05-18T07:31:44.909Z,57.72
2019-05-18T07:32:44.899Z,57.85
2019-05-18T07:33:44.900Z,58.33
2019-05-18T07:34:44.878Z,58.73
2019-05-18T07:35:44.881Z,57.12
2019-05-18T07:36:44.856Z,57.32
2019-05-18T07:37:44.849Z,57.12
2019-05-18T07:38:44.837Z,57.22
2019-05-18T07:39:44.840Z,57.72
2019-05-18T07:40:44.813Z,57.22
2019-05-18T07:41:47.103Z,57.12
2019-05-18T07:42:44.791Z,57.32
2019-05-18T07:43:44.783Z,57.19
2019-05-18T07:44:44.776Z,57.90
2019-05-18T07:45:44.771Z,55.76
2019-05-18T07:46:44.756Z,55.26
2019-05-18T07:47:44.755Z,55.35
2019-05-18T07:48:44.729Z,55.35
2019-05-18T07:49:44.723Z,55.63
2019-05-18T07:50:44.723Z,55.66
2019-05-18T07:51:44.713Z,55.03
2019-05-18T07:52:44.692Z,54.30
2019-05-18T07:53:44.691Z,54.80
2019-05-18T07:54:44.669Z,54.10
2019-05-18T07:55:44.658Z,54.77
2019-05-18T07:56:44.657Z,55.55
2019-05-18T07:57:44.644Z,54.75
2019-05-18T07:58:44.625Z,52.92
2019-05-18T07:59:44.631Z,55.28
2019-05-18T08:00:44.608Z,56.38
2019-05-18T08:01:44.594Z,57.09
2019-05-18T08:02:44.583Z,57.79
2019-05-18T08:03:44.581Z,55.96
2019-05-18T08:04:44.560Z,55.86
2019-05-18T08:05:44.557Z,56.30
2019-05-18T08:06:44.549Z,54.10
2019-05-18T08:07:44.576Z,54.20
2019-05-18T08:08:44.519Z,53.70
2019-05-18T08:09:44.523Z,54.30
2019-05-18T08:10:44.497Z,55.38
2019-05-18T08:11:44.499Z,53.47
2019-05-18T08:12:44.476Z,54.10
2019-05-18T08:13:44.467Z,54.00
2019-05-18T08:14:44.457Z,53.67
2019-05-18T08:15:44.456Z,53.14
2019-05-18T08:16:44.434Z,53.02
2019-05-18T08:17:44.438Z,52.37
2019-05-18T08:18:44.416Z,52.92
2019-05-18T08:19:44.410Z,54.35
2019-05-18T08:20:44.397Z,56.34
2019-05-18T08:21:52.947Z,55.80
2019-05-18T08:22:45.373Z,54.50
2019-05-18T08:23:44.372Z,55.18
2019-05-18T08:24:44.352Z,53.00
2019-05-18T08:25:44.345Z,53.87
2019-05-18T08:26:44.337Z,52.97
2019-05-18T08:27:44.342Z,52.14
2019-05-18T08:28:44.317Z,51.62
2019-05-18T08:29:44.307Z,52.22
2019-05-18T08:30:44.301Z,51.89
2019-05-18T08:31:44.281Z,51.87
2019-05-18T08:32:44.273Z,50.57
2019-05-18T08:33:44.270Z,50.16
2019-05-18T08:34:44.250Z,50.07
2019-05-18T08:35:44.249Z,50.76
2019-05-18T08:36:44.229Z,51.07
2019-05-18T08:37:44.217Z,50.16
2019-05-18T08:38:44.209Z,51.17
2019-05-18T08:39:44.211Z,50.87
2019-05-18T08:40:44.187Z,51.46
2019-05-18T08:41:44.185Z,51.84
2019-05-18T08:42:44.167Z,50.04
2019-05-18T08:43:44.157Z,49.29
2019-05-18T08:44:44.158Z,51.12
2019-05-18T08:45:44.149Z,52.44
2019-05-18T08:46:44.126Z,52.94
2019-05-18T08:47:44.124Z,53.02
2019-05-18T08:48:44.103Z,51.99
2019-05-18T08:49:44.093Z,50.57
2019-05-18T08:50:44.084Z,50.87
2019-05-18T08:51:44.084Z,50.96
2019-05-18T08:52:44.061Z,51.99
2019-05-18T08:53:44.064Z,51.19
2019-05-18T08:54:44.043Z,52.09
2019-05-18T08:55:44.037Z,51.67
2019-05-18T08:56:44.020Z,51.37
2019-05-18T08:57:44.024Z,51.19
2019-05-18T08:58:44.003Z,50.99
2019-05-18T08:59:44.003Z,51.07
2019-05-18T09:00:43.977Z,51.37
2019-05-18T09:01:43.966Z,50.46
2019-05-18T09:02:43.963Z,50.34
2019-05-18T09:03:43.956Z,50.44
2019-05-18T09:04:43.935Z,49.14
2019-05-18T09:05:43.952Z,50.44
2019-05-18T09:06:43.919Z,49.64
2019-05-18T09:07:43.903Z,49.11
2019-05-18T09:08:43.893Z,48.61
2019-05-18T09:09:43.897Z,49.11
2019-05-18T09:10:43.873Z,49.79
2019-05-18T09:11:43.872Z,51.39
2019-05-18T09:12:43.851Z,48.69
2019-05-18T09:13:43.841Z,49.19
2019-05-18T09:14:43.832Z,49.11
2019-05-18T09:15:43.841Z,48.74
2019-05-18T09:16:43.813Z,48.52
2019-05-18T09:17:43.807Z,47.52
2019-05-18T09:18:43.790Z,47.52
2019-05-18T09:19:43.775Z,48.64
2019-05-18T09:20:43.763Z,48.14
2019-05-18T09:21:43.762Z,48.57
2019-05-18T09:22:43.742Z,50.39
2019-05-18T09:23:43.788Z,49.79
2019-05-18T09:24:43.721Z,49.26
2019-05-18T09:25:43.712Z,48.76
2019-05-18T09:26:43.699Z,47.84
2019-05-18T09:27:43.699Z,48.94
2019-05-18T09:28:43.678Z,47.92
2019-05-18T09:29:43.687Z,46.31
2019-05-18T09:30:43.680Z,46.22
2019-05-18T09:31:43.648Z,47.22
2019-05-18T09:32:43.637Z,45.92
2019-05-18T09:33:43.644Z,46.04
2019-05-18T09:34:43.627Z,46.14
2019-05-18T09:35:43.621Z,47.24
2019-05-18T09:36:43.605Z,46.64
2019-05-18T09:37:43.587Z,47.84
2019-05-18T09:38:43.583Z,47.56
2019-05-18T09:39:43.612Z,49.66
2019-05-18T09:40:43.558Z,47.46
2019-05-18T09:41:43.569Z,47.46
2019-05-18T09:42:43.535Z,47.56
2019-05-18T09:43:43.526Z,47.88
2019-05-18T09:44:43.552Z,47.91
2019-05-18T09:45:43.514Z,47.20
2019-05-18T09:46:43.493Z,48.99
2019-05-18T09:47:43.502Z,48.66
2019-05-18T09:48:43.472Z,48.54
2019-05-18T09:49:43.460Z,48.64
2019-05-18T09:50:43.454Z,48.52
2019-05-18T09:51:43.456Z,47.11
2019-05-18T09:52:45.410Z,45.69
2019-05-18T09:53:51.117Z,47.09
2019-05-18T09:54:44.409Z,45.67
2019-05-18T09:55:43.399Z,46.89
2019-05-18T09:56:43.389Z,47.19
2019-05-18T09:57:43.389Z,47.97
2019-05-18T09:58:43.367Z,47.77
2019-05-18T09:59:43.383Z,47.07
2019-05-18T10:00:43.346Z,46.77
2019-05-18T10:01:43.337Z,46.87
2019-05-18T10:02:43.325Z,47.39
2019-05-18T10:03:43.327Z,46.51
2019-05-18T10:04:43.307Z,47.54
2019-05-18T10:05:43.308Z,47.52
2019-05-18T10:06:43.313Z,47.42
2019-05-18T10:07:43.280Z,47.02
2019-05-18T10:08:43.267Z,44.49
2019-05-18T10:09:43.264Z,44.70
2019-05-18T10:10:43.246Z,45.29
2019-05-18T10:11:43.243Z,45.20
2019-05-18T10:12:43.225Z,43.77
2019-05-18T10:13:43.225Z,43.77
2019-05-18T10:14:43.233Z,43.79
2019-05-18T10:15:43.203Z,45.59
2019-05-18T10:16:43.191Z,44.93
2019-05-18T10:17:43.267Z,46.34
2019-05-18T10:18:43.168Z,46.74
2019-05-18T10:19:43.168Z,47.11
2019-05-18T10:20:43.160Z,48.11
2019-05-18T10:21:43.143Z,48.42
2019-05-18T10:22:55.107Z,47.39
2019-05-18T10:23:44.120Z,48.29
2019-05-18T10:24:43.105Z,47.99
2019-05-18T10:25:43.091Z,46.99
2019-05-18T10:26:43.081Z,46.00
2019-05-18T10:27:43.080Z,45.01
2019-05-18T10:28:43.059Z,46.31
2019-05-18T10:29:46.404Z,47.02
2019-05-18T10:30:43.042Z,47.44
2019-05-18T10:31:43.029Z,47.16
2019-05-18T10:32:43.018Z,48.07
2019-05-18T10:33:43.047Z,48.76
2019-05-18T10:34:42.997Z,45.54
2019-05-18T10:35:43.020Z,43.33
2019-05-18T10:36:42.975Z,44.42
2019-05-18T10:37:42.965Z,45.09
2019-05-18T10:38:42.954Z,44.49
2019-05-18T10:39:42.958Z,43.49
2019-05-18T10:40:43.081Z,41.38
2019-05-18T10:41:42.934Z,42.19
2019-05-18T10:42:42.911Z,42.60
2019-05-18T10:43:46.880Z,43.29
2019-05-18T10:44:42.893Z,43.19
2019-05-18T10:45:45.025Z,43.19
2019-05-18T10:46:42.869Z,42.10
2019-05-18T10:47:42.894Z,44.09
2019-05-18T10:48:42.849Z,43.07
2019-05-18T10:49:42.838Z,42.18
2019-05-18T10:50:42.830Z,41.88
2019-05-18T10:51:42.835Z,42.18
2019-05-18T10:52:42.820Z,42.18
2019-05-18T10:53:42.820Z,40.89
2019-05-18T10:54:42.783Z,43.59
2019-05-18T10:55:42.779Z,42.49
2019-05-18T10:56:42.767Z,43.32
2019-05-18T10:57:42.773Z,43.49
2019-05-18T10:58:42.746Z,44.29
2019-05-18T10:59:42.738Z,43.99
2019-05-18T11:00:42.719Z,45.50
2019-05-18T11:01:44.021Z,45.20
2019-05-18T11:02:42.699Z,45.69
2019-05-18T11:03:42.700Z,45.42
2019-05-18T11:04:42.680Z,45.84
2019-05-18T11:05:42.687Z,46.16
2019-05-18T11:06:42.663Z,46.96
2019-05-18T11:07:42.648Z,47.56
2019-05-18T11:08:42.641Z,47.06
2019-05-18T11:09:42.636Z,47.36
2019-05-18T11:10:42.617Z,46.44
2019-05-18T11:11:42.617Z,46.51
2019-05-18T11:12:42.591Z,47.81
2019-05-18T11:13:42.580Z,43.82
2019-05-18T11:14:42.570Z,46.22
2019-05-18T11:15:42.569Z,43.49
2019-05-18T11:16:42.569Z,45.50
2019-05-18T11:17:42.541Z,43.99
2019-05-18T11:18:42.570Z,44.27
2019-05-18T11:19:42.517Z,43.90
2019-05-18T11:20:42.507Z,44.20
2019-05-18T11:21:42.512Z,43.09
2019-05-18T11:22:42.492Z,43.07
2019-05-18T11:23:44.932Z,43.48
2019-05-18T11:24:42.471Z,43.77
2019-05-18T11:25:42.453Z,43.77
2019-05-18T11:26:42.443Z,43.25
2019-05-18T11:27:42.442Z,41.85
2019-05-18T11:28:42.421Z,41.38
2019-05-18T11:29:42.413Z,40.95
2019-05-18T11:30:42.414Z,42.07
2019-05-18T11:31:42.390Z,42.05
2019-05-18T11:32:42.378Z,42.03
2019-05-18T11:33:42.377Z,41.71
2019-05-18T11:34:42.356Z,41.41
2019-05-18T11:35:42.355Z,40.89
2019-05-18T11:36:42.358Z,39.50
2019-05-18T11:37:42.334Z,40.78
2019-05-18T11:38:42.323Z,40.08
2019-05-18T11:39:42.315Z,42.27
2019-05-18T11:40:42.295Z,41.00
2019-05-18T11:41:42.927Z,42.40
2019-05-18T11:42:42.274Z,41.61
2019-05-18T11:43:42.262Z,41.91
2019-05-18T11:44:42.257Z,41.41
2019-05-18T11:45:42.280Z,40.83
2019-05-18T11:46:42.231Z,42.03
2019-05-18T11:47:42.226Z,41.93
2019-05-18T11:48:42.234Z,41.22
2019-05-18T11:49:42.198Z,41.60
2019-05-18T11:50:42.191Z,41.17
2019-05-18T11:51:42.195Z,39.68
2019-05-18T11:52:42.273Z,39.48
2019-05-18T11:53:42.170Z,39.48
2019-05-18T11:54:42.147Z,39.68
2019-05-18T11:55:42.136Z,39.28
2019-05-18T11:56:42.157Z,40.58
2019-05-18T11:57:42.145Z,41.16
2019-05-18T11:58:42.109Z,40.86
2019-05-18T11:59:42.106Z,39.46
2019-05-18T12:00:42.090Z,41.25
2019-05-18T12:01:42.074Z,40.34
2019-05-18T12:02:42.070Z,39.64
2019-05-18T12:03:42.068Z,40.86
2019-05-18T12:04:42.058Z,40.26
2019-05-18T12:05:42.077Z,40.94
2019-05-18T12:06:42.033Z,40.44
2019-05-18T12:07:42.015Z,39.14
2019-05-18T12:08:42.010Z,39.74
2019-05-18T12:09:42.001Z,40.14
2019-05-18T12:10:42.006Z,38.95
2019-05-18T12:11:41.980Z,40.14
2019-05-18T12:12:41.956Z,39.84
2019-05-18T12:13:41.950Z,39.74
2019-05-18T12:14:41.936Z,40.94
2019-05-18T12:15:42.186Z,40.12
2019-05-18T12:16:41.913Z,40.12
2019-05-18T12:17:41.920Z,40.42
2019-05-18T12:18:41.895Z,40.74
2019-05-18T12:19:41.884Z,38.63
2019-05-18T12:20:41.873Z,38.65
2019-05-18T12:21:41.874Z,39.04
2019-05-18T12:22:41.851Z,40.44
2019-05-18T12:23:41.853Z,38.86
2019-05-18T12:24:41.830Z,38.25
2019-05-18T12:25:41.824Z,38.56
2019-05-18T12:26:41.805Z,39.74
2019-05-18T12:27:41.831Z,38.54
2019-05-18T12:28:41.786Z,38.86
2019-05-18T12:29:41.792Z,38.46
2019-05-18T12:30:41.763Z,37.88
2019-05-18T12:31:41.754Z,38.80
2019-05-18T12:32:41.742Z,38.50
2019-05-18T12:33:41.742Z,40.30
2019-05-18T12:34:44.748Z,41.00
2019-05-18T12:35:41.727Z,38.59
2019-05-18T12:36:41.703Z,38.67
2019-05-18T12:37:41.692Z,38.76
2019-05-18T12:38:41.681Z,38.07
2019-05-18T12:39:41.704Z,36.85
2019-05-18T12:40:41.660Z,36.46
2019-05-18T12:41:41.658Z,37.35
2019-05-18T12:42:41.636Z,36.05
2019-05-18T12:43:41.633Z,36.55
2019-05-18T12:44:41.615Z,36.24
2019-05-18T12:45:41.618Z,35.54
2019-05-18T12:46:41.623Z,35.44
2019-05-18T12:47:41.608Z,34.86
2019-05-18T12:48:41.574Z,36.85
2019-05-18T12:49:41.562Z,36.04
2019-05-18T12:50:41.552Z,35.34
2019-05-18T12:51:41.564Z,35.34
2019-05-18T12:52:41.530Z,35.34